Time;durP1;ratioP1;P1;durP2;ratioP2;P2;SDS_P1;SDS_P2;PMS_P1;PMS_P2;Temp;Humidity;BMP_temperature;BMP_pressure;BME280_temperature;BME280_humidity;BME280_pressure;Samples;Min_cycle;Max_cycle;Signal;HPM_P1;HPM_P2
2023/04/29 00:02:17;;;;;;;10.60;6.22;;;;;;;;;;4908492;29;20055;-68
2023/04/29 00:04:48;;;;;;;10.95;6.75;;;;;;;;;;4910639;28;20067;-64
2023/04/29 00:07:15;;;;;;;16.92;7.30;;;;;;;;;;4913227;28;20047;-68
2023/04/29 00:09:41;;;;;;;12.32;7.88;;;;;;;;;;4925120;28;20351;-66
2023/04/29 00:12:09;;;;;;;17.40;7.70;;;;;;;;;;4910845;29;20344;-64
2023/04/29 00:14:34;;;;;;;15.90;7.32;;;;;;;;;;4908608;28;20062;-64
2023/04/29 00:17:02;;;;;;;12.85;7.63;;;;;;;;;;4907736;28;20143;-64
2023/04/29 00:19:28;;;;;;;15.90;6.90;;;;;;;;;;4916414;28;20540;-64
2023/04/29 00:21:55;;;;;;;14.10;7.80;;;;;;;;;;4905556;28;20059;-65
2023/04/29 00:24:20;;;;;;;13.20;7.60;;;;;;;;;;4904624;29;20401;-66
2023/04/29 00:27:26;;;;;;;14.70;7.32;;;;;;;;;;4904645;29;20078;-64
2023/04/29 00:30:27;;;;;;;20.27;7.65;;;;;;;;;;4906029;28;20558;-66
2023/04/29 00:33:33;;;;;;;17.98;7.93;;;;;;;;;;4905306;28;20064;-66
2023/04/29 00:37:14;;;;;;;16.90;7.82;;;;;;;;;;4901218;29;20538;-65
2023/04/29 00:40:54;;;;;;;14.82;7.15;;;;;;;;;;4900258;28;20149;-66
2023/04/29 00:44:34;;;;;;;15.38;7.90;;;;;;;;;;4907020;28;20097;-65
2023/04/29 00:48:15;;;;;;;12.82;7.78;;;;;;;;;;4909463;29;20508;-65
2023/04/29 00:51:58;;;;;;;10.63;6.75;;;;;;;;;;4914119;28;20123;-66
2023/04/29 00:55:40;;;;;;;12.93;6.95;;;;;;;;;;4911736;29;20059;-65
2023/04/29 00:59:20;;;;;;;15.00;6.93;;;;;;;;;;4909113;28;20733;-65
2023/04/29 01:03:00;;;;;;;14.77;7.55;;;;;;;;;;4906178;28;20056;-65
2023/04/29 01:06:40;;;;;;;11.90;7.72;;;;;;;;;;4905729;28;20783;-64
2023/04/29 01:10:29;;;;;;;14.48;7.45;;;;;;;;;;4915221;28;20048;-67
2023/04/29 01:14:09;;;;;;;11.05;7.30;;;;;;;;;;4908940;28;20067;-64
2023/04/29 01:17:50;;;;;;;12.25;7.00;;;;;;;;;;4912104;28;20115;-64
2023/04/29 01:21:30;;;;;;;15.40;7.38;;;;;;;;;;4913587;29;20047;-65
2023/04/29 01:25:11;;;;;;;12.60;8.13;;;;;;;;;;4909591;28;20053;-72
2023/04/29 01:28:54;;;;;;;12.73;8.82;;;;;;;;;;4911566;28;20058;-65
2023/04/29 01:32:37;;;;;;;14.90;8.27;;;;;;;;;;4911189;28;21391;-64
2023/04/29 01:35:43;;;;;;;15.57;8.35;;;;;;;;;;4907911;28;20051;-68
2023/04/29 01:39:35;;;;;;;11.73;8.30;;;;;;;;;;4907924;29;20047;-65
2023/04/29 01:43:21;;;;;;;21.00;9.00;;;;;;;;;;4909887;28;20499;-67
2023/04/29 01:47:03;;;;;;;14.98;8.82;;;;;;;;;;4907818;28;20176;-65
2023/04/29 01:50:45;;;;;;;13.10;8.98;;;;;;;;;;4907067;28;20054;-67
2023/04/29 01:54:26;;;;;;;14.55;9.25;;;;;;;;;;4912125;28;20048;-67
2023/04/29 01:58:06;;;;;;;15.68;10.13;;;;;;;;;;4911982;28;20651;-64
2023/04/29 02:01:47;;;;;;;17.17;8.55;;;;;;;;;;4912914;28;20052;-64
2023/04/29 02:05:31;;;;;;;13.32;8.02;;;;;;;;;;4912477;28;20056;-64
2023/04/29 02:09:07;;;;;;;17.80;8.45;;;;;;;;;;4913048;28;20197;-67
2023/04/29 02:12:48;;;;;;;13.95;8.38;;;;;;;;;;4912601;28;20411;-66
2023/04/29 02:16:29;;;;;;;16.52;8.68;;;;;;;;;;4913369;29;20138;-65
2023/04/29 02:20:10;;;;;;;19.02;9.00;;;;;;;;;;4915528;28;20040;-65
2023/04/29 02:23:50;;;;;;;15.35;8.88;;;;;;;;;;4912580;28;20090;-64
2023/04/29 02:27:32;;;;;;;18.38;9.45;;;;;;;;;;4910700;29;20527;-66
2023/04/29 02:31:12;;;;;;;18.40;10.30;;;;;;;;;;4910982;28;20138;-65
2023/04/29 02:34:52;;;;;;;19.85;10.07;;;;;;;;;;4912527;28;20382;-64
2023/04/29 02:38:32;;;;;;;23.10;10.52;;;;;;;;;;4913282;28;20035;-64
2023/04/29 02:42:13;;;;;;;15.85;9.88;;;;;;;;;;4913582;28;20047;-65
2023/04/29 02:45:53;;;;;;;22.63;9.80;;;;;;;;;;4908343;28;20393;-63
2023/04/29 02:49:34;;;;;;;17.27;10.13;;;;;;;;;;4909939;28;20060;-64
2023/04/29 02:53:15;;;;;;;21.45;9.45;;;;;;;;;;4911899;28;20512;-65
2023/04/29 02:56:55;;;;;;;14.10;9.02;;;;;;;;;;4908810;28;20114;-64
2023/04/29 03:00:35;;;;;;;18.00;9.77;;;;;;;;;;4908277;28;20055;-65
2023/04/29 03:04:16;;;;;;;22.48;10.20;;;;;;;;;;4910318;28;20051;-67
2023/04/29 03:07:56;;;;;;;18.33;10.75;;;;;;;;;;4910835;29;20344;-65
2023/04/29 03:11:36;;;;;;;20.02;9.63;;;;;;;;;;4911363;28;20051;-64
2023/04/29 03:15:17;;;;;;;15.18;8.93;;;;;;;;;;4911409;28;20063;-65
2023/04/29 03:18:57;;;;;;;19.92;10.05;;;;;;;;;;4913058;28;20054;-64
2023/04/29 03:22:37;;;;;;;17.95;9.77;;;;;;;;;;4909620;28;20467;-65
2023/04/29 03:26:18;;;;;;;17.45;10.05;;;;;;;;;;4908421;28;20048;-65
2023/04/29 03:29:58;;;;;;;16.20;9.63;;;;;;;;;;4911298;28;20783;-65
2023/04/29 03:33:38;;;;;;;19.20;9.43;;;;;;;;;;4909570;28;20059;-65
2023/04/29 03:37:19;;;;;;;15.30;8.48;;;;;;;;;;4911834;28;20063;-65
2023/04/29 03:40:59;;;;;;;16.17;8.65;;;;;;;;;;4908562;29;20055;-64
2023/04/29 03:44:40;;;;;;;17.95;7.78;;;;;;;;;;4909035;28;20048;-63
2023/04/29 03:48:21;;;;;;;17.08;7.70;;;;;;;;;;4912513;28;20052;-64
2023/04/29 03:52:02;;;;;;;15.82;7.90;;;;;;;;;;4910015;29;20056;-64
2023/04/29 03:55:42;;;;;;;19.02;7.75;;;;;;;;;;4907417;28;20139;-67
2023/04/29 03:59:22;;;;;;;15.82;8.05;;;;;;;;;;4908007;28;20392;-66
2023/04/29 04:03:02;;;;;;;19.65;7.82;;;;;;;;;;4911754;28;20056;-64
2023/04/29 04:06:49;;;;;;;18.17;6.95;;;;;;;;;;4906053;28;20480;-64
2023/04/29 04:10:24;;;;;;;14.68;7.95;;;;;;;;;;4913062;28;20087;-65
2023/04/29 04:14:05;;;;;;;11.82;6.28;;;;;;;;;;4909663;29;21126;-63
2023/04/29 04:17:45;;;;;;;12.10;6.13;;;;;;;;;;4910722;29;20062;-64
2023/04/29 04:21:28;;;;;;;13.77;5.25;;;;;;;;;;4928420;28;20051;-65
2023/04/29 04:25:08;;;;;;;11.15;6.03;;;;;;;;;;4922994;29;20416;-66
2023/04/29 04:28:48;;;;;;;17.08;6.18;;;;;;;;;;4908563;29;20170;-64
2023/04/29 04:32:29;;;;;;;16.17;6.60;;;;;;;;;;4910659;29;20051;-63
2023/04/29 04:36:09;;;;;;;10.95;5.55;;;;;;;;;;4910096;28;20051;-64
2023/04/29 04:39:49;;;;;;;12.05;5.40;;;;;;;;;;4909817;28;20453;-64
2023/04/29 04:43:30;;;;;;;7.93;4.82;;;;;;;;;;4908924;29;20052;-63
2023/04/29 04:47:10;;;;;;;19.00;5.25;;;;;;;;;;4910020;29;20147;-64
2023/04/29 04:50:50;;;;;;;10.05;5.25;;;;;;;;;;4909177;28;20043;-65
2023/04/29 04:54:31;;;;;;;12.43;4.95;;;;;;;;;;4909087;28;20060;-65
2023/04/29 04:58:11;;;;;;;12.68;5.10;;;;;;;;;;4910221;28;20084;-68
2023/04/29 05:01:51;;;;;;;15.93;5.03;;;;;;;;;;4915488;28;20460;-66
2023/04/29 05:05:33;;;;;;;15.82;5.10;;;;;;;;;;4908990;28;20048;-64
2023/04/29 05:09:13;;;;;;;13.93;5.80;;;;;;;;;;4907135;28;20056;-64
2023/04/29 05:12:54;;;;;;;11.15;4.75;;;;;;;;;;4908545;28;20401;-66
2023/04/29 05:16:34;;;;;;;15.43;5.10;;;;;;;;;;4908074;29;20056;-66
2023/04/29 05:20:15;;;;;;;18.63;5.80;;;;;;;;;;4909029;28;20123;-66
2023/04/29 05:23:55;;;;;;;16.63;4.78;;;;;;;;;;4910961;28;20051;-65
2023/04/29 05:27:35;;;;;;;10.18;4.72;;;;;;;;;;4911438;28;20047;-65
2023/04/29 05:31:15;;;;;;;10.52;5.18;;;;;;;;;;4914578;29;20043;-63
2023/04/29 05:34:56;;;;;;;11.38;4.50;;;;;;;;;;4912950;28;20707;-64
2023/04/29 05:38:37;;;;;;;16.42;4.28;;;;;;;;;;4912549;28;20059;-64
2023/04/29 05:42:16;;;;;;;8.52;3.60;;;;;;;;;;4914116;28;20059;-63
2023/04/29 05:45:57;;;;;;;8.38;3.35;;;;;;;;;;4911186;28;20532;-64
2023/04/29 05:49:37;;;;;;;6.38;3.60;;;;;;;;;;4912259;28;20109;-65
2023/04/29 05:53:17;;;;;;;19.75;4.13;;;;;;;;;;4914287;28;20373;-64
2023/04/29 05:56:58;;;;;;;9.70;4.13;;;;;;;;;;4913521;28;20175;-64
2023/04/29 06:00:38;;;;;;;11.32;3.67;;;;;;;;;;4910493;28;20386;-64
2023/04/29 06:04:18;;;;;;;16.80;4.13;;;;;;;;;;4911632;29;20051;-66
2023/04/29 06:07:59;;;;;;;9.20;3.70;;;;;;;;;;4904268;28;20523;-67
2023/04/29 06:11:39;;;;;;;9.93;4.00;;;;;;;;;;4911039;28;20044;-65
2023/04/29 06:15:20;;;;;;;10.35;3.92;;;;;;;;;;4911511;28;20141;-63
2023/04/29 06:19:00;;;;;;;11.45;4.03;;;;;;;;;;4912063;28;20079;-65
2023/04/29 06:22:40;;;;;;;9.35;3.72;;;;;;;;;;4911875;29;20106;-64
2023/04/29 06:26:21;;;;;;;8.43;3.60;;;;;;;;;;4910149;28;21096;-64
2023/04/29 06:30:01;;;;;;;12.48;3.88;;;;;;;;;;4908761;28;20142;-63
2023/04/29 06:33:41;;;;;;;9.48;4.13;;;;;;;;;;4911172;29;20464;-66
2023/04/29 06:37:22;;;;;;;12.75;4.00;;;;;;;;;;4911421;28;20055;-65
2023/04/29 06:41:03;;;;;;;14.13;3.67;;;;;;;;;;4908645;28;20459;-65
2023/04/29 06:44:45;;;;;;;11.10;3.88;;;;;;;;;;4910734;28;20815;-66
2023/04/29 06:48:26;;;;;;;11.50;3.60;;;;;;;;;;4915371;28;20381;-64
2023/04/29 06:52:06;;;;;;;14.15;3.60;;;;;;;;;;4912799;28;20066;-64
2023/04/29 06:55:47;;;;;;;9.70;3.80;;;;;;;;;;4912282;28;20425;-65
2023/04/29 06:59:27;;;;;;;13.73;4.00;;;;;;;;;;4912108;29;20082;-65
2023/04/29 07:03:08;;;;;;;9.55;3.03;;;;;;;;;;4907297;28;20043;-64
2023/04/29 07:06:48;;;;;;;13.38;4.03;;;;;;;;;;4908415;28;20066;-65
2023/04/29 07:10:28;;;;;;;9.95;3.72;;;;;;;;;;4914877;28;20055;-67
2023/04/29 07:14:09;;;;;;;11.70;3.55;;;;;;;;;;4909453;28;20083;-68
2023/04/29 07:17:49;;;;;;;12.13;3.25;;;;;;;;;;4912534;28;20285;-68
2023/04/29 07:21:30;;;;;;;10.98;3.67;;;;;;;;;;4914797;29;20435;-67
2023/04/29 07:25:10;;;;;;;12.43;3.35;;;;;;;;;;4912724;28;20611;-65
2023/04/29 07:28:50;;;;;;;9.98;3.10;;;;;;;;;;4909574;28;20058;-65
2023/04/29 07:32:31;;;;;;;9.15;2.75;;;;;;;;;;4907930;29;20075;-66
2023/04/29 07:36:11;;;;;;;14.20;2.65;;;;;;;;;;4898623;28;20063;-66
2023/04/29 07:39:51;;;;;;;7.65;2.83;;;;;;;;;;4899263;29;20043;-70
2023/04/29 07:43:31;;;;;;;12.07;2.90;;;;;;;;;;4906525;29;20386;-70
2023/04/29 07:47:12;;;;;;;9.68;3.20;;;;;;;;;;4908360;28;20043;-67
2023/04/29 07:50:53;;;;;;;15.82;3.28;;;;;;;;;;4906403;28;20496;-66
2023/04/29 07:54:33;;;;;;;12.32;3.03;;;;;;;;;;4907994;29;20308;-68
2023/04/29 07:58:14;;;;;;;6.75;2.58;;;;;;;;;;4908896;28;20062;-68
2023/04/29 08:01:54;;;;;;;13.00;3.67;;;;;;;;;;4903031;28;20056;-70
2023/04/29 08:05:35;;;;;;;14.35;4.57;;;;;;;;;;4898817;29;20448;-66
2023/04/29 08:09:15;;;;;;;11.60;3.70;;;;;;;;;;4905325;29;20442;-69
2023/04/29 08:15:21;;;;;;;15.77;4.22;;;;;;;;;;4786424;27;9952073;-64
2023/04/29 08:19:02;;;;;;;14.38;3.85;;;;;;;;;;5137675;27;20340;-64
2023/04/29 08:22:42;;;;;;;16.67;3.80;;;;;;;;;;5133922;27;20042;-66
2023/04/29 08:25:59;;;;;;;15.02;3.30;;;;;;;;;;5134299;27;20239;-65
2023/04/29 08:28:26;;;;;;;18.75;3.80;;;;;;;;;;5130061;27;20432;-67
2023/04/29 08:30:52;;;;;;;12.15;3.95;;;;;;;;;;5140982;27;20042;-65
2023/04/29 08:33:18;;;;;;;14.32;3.78;;;;;;;;;;5141065;27;20080;-65
2023/04/29 08:35:44;;;;;;;16.63;4.20;;;;;;;;;;5143203;27;20065;-65
2023/04/29 08:38:10;;;;;;;20.45;3.78;;;;;;;;;;5143658;27;20047;-65
2023/04/29 08:40:41;;;;;;;11.18;3.75;;;;;;;;;;5138970;27;20071;-64
2023/04/29 08:43:47;;;;;;;19.05;4.07;;;;;;;;;;5140045;27;20134;-66
2023/04/29 08:47:15;;;;;;;11.70;4.35;;;;;;;;;;5137417;27;20521;-66
2023/04/29 08:50:55;;;;;;;18.10;4.90;;;;;;;;;;5139187;27;20046;-67
2023/04/29 08:54:35;;;;;;;13.05;5.38;;;;;;;;;;5141157;27;20534;-67
2023/04/29 08:57:38;;;;;;;22.63;6.32;;;;;;;;;;5139003;27;20058;-68
2023/04/29 09:00:07;;;;;;;13.55;5.85;;;;;;;;;;5142761;27;20046;-68
2023/04/29 09:02:40;;;;;;;14.98;5.55;;;;;;;;;;5139382;27;20050;-64
2023/04/29 09:05:12;;;;;;;24.75;7.63;;;;;;;;;;5139130;27;20050;-65
2023/04/29 09:07:40;;;;;;;35.38;12.20;;;;;;;;;;5138560;27;20125;-67
2023/04/29 09:10:07;;;;;;;38.55;17.88;;;;;;;;;;5140970;27;20065;-63
2023/04/29 09:12:34;;;;;;;20.30;8.07;;;;;;;;;;5123113;27;20532;-65
2023/04/29 09:15:03;;;;;;;12.15;6.10;;;;;;;;;;5141528;27;20046;-65
2023/04/29 09:17:47;;;;;;;13.40;5.55;;;;;;;;;;5142539;27;20250;-65
2023/04/29 09:20:20;;;;;;;19.48;5.65;;;;;;;;;;5142480;27;20509;-63
2023/04/29 09:22:57;;;;;;;15.63;5.35;;;;;;;;;;5152596;27;20311;-67
2023/04/29 09:25:24;;;;;;;14.15;4.82;;;;;;;;;;5130811;27;20375;-63
2023/04/29 09:27:50;;;;;;;12.88;4.95;;;;;;;;;;5107203;27;20062;-65
2023/04/29 09:30:16;;;;;;;13.43;5.55;;;;;;;;;;5125604;27;20050;-66
2023/04/29 09:32:44;;;;;;;14.02;5.20;;;;;;;;;;5123441;27;20050;-65
2023/04/29 09:35:25;;;;;;;10.95;5.15;;;;;;;;;;5113209;27;20050;-66
2023/04/29 09:38:07;;;;;;;17.98;6.10;;;;;;;;;;5126647;27;20050;-67
2023/04/29 09:40:33;;;;;;;9.25;4.97;;;;;;;;;;5124196;27;20073;-66
2023/04/29 09:43:00;;;;;;;12.43;5.22;;;;;;;;;;5122863;27;20043;-65
2023/04/29 09:45:40;;;;;;;14.52;5.45;;;;;;;;;;5125555;27;20059;-63
2023/04/29 09:48:08;;;;;;;10.55;5.55;;;;;;;;;;5125311;27;20425;-65
2023/04/29 09:50:38;;;;;;;15.63;6.63;;;;;;;;;;5127031;27;20343;-65
2023/04/29 09:53:08;;;;;;;15.02;6.20;;;;;;;;;;5123208;27;20099;-65
2023/04/29 09:55:35;;;;;;;17.77;5.55;;;;;;;;;;5104340;27;20043;-63
2023/04/29 09:58:01;;;;;;;13.38;5.30;;;;;;;;;;5122491;27;20174;-67
2023/04/29 10:00:32;;;;;;;16.95;5.38;;;;;;;;;;5123643;27;20047;-66
2023/04/29 10:03:00;;;;;;;9.88;4.95;;;;;;;;;;5123775;27;20051;-68
2023/04/29 10:05:29;;;;;;;10.88;4.75;;;;;;;;;;5125655;27;20071;-66
2023/04/29 10:07:57;;;;;;;17.65;4.95;;;;;;;;;;5124338;27;20050;-65
2023/04/29 10:10:24;;;;;;;12.32;4.63;;;;;;;;;;5115870;27;20050;-65
2023/04/29 10:12:53;;;;;;;9.50;4.38;;;;;;;;;;5137609;27;20095;-64
2023/04/29 10:15:32;;;;;;;9.07;4.30;;;;;;;;;;5099866;27;20135;-67
2023/04/29 10:18:19;;;;;;;12.73;4.68;;;;;;;;;;5125864;27;20038;-67
2023/04/29 10:20:46;;;;;;;11.05;4.63;;;;;;;;;;5125978;27;20392;-67
2023/04/29 10:23:14;;;;;;;17.85;5.20;;;;;;;;;;5125545;27;20050;-67
2023/04/29 10:25:45;;;;;;;18.40;6.25;;;;;;;;;;5122479;27;20805;-66
2023/04/29 10:28:16;;;;;;;18.40;5.90;;;;;;;;;;5124045;27;20050;-64
2023/04/29 10:30:44;;;;;;;18.15;5.70;;;;;;;;;;5122108;27;20062;-64
2023/04/29 10:33:11;;;;;;;13.20;5.55;;;;;;;;;;5123005;27;20046;-64
2023/04/29 10:35:37;;;;;;;16.75;6.68;;;;;;;;;;5124415;27;20051;-63
2023/04/29 10:38:12;;;;;;;12.68;6.43;;;;;;;;;;5123471;27;20054;-65
2023/04/29 10:40:46;;;;;;;12.05;5.82;;;;;;;;;;5127155;27;20059;-65
2023/04/29 10:43:12;;;;;;;8.45;5.35;;;;;;;;;;5122439;27;20522;-67
2023/04/29 10:45:42;;;;;;;10.38;5.50;;;;;;;;;;5122829;27;20046;-65
2023/04/29 10:48:10;;;;;;;10.55;4.93;;;;;;;;;;5125995;27;20131;-65
2023/04/29 10:50:58;;;;;;;11.82;5.25;;;;;;;;;;5122743;27;20054;-65
2023/04/29 10:53:24;;;;;;;11.93;5.45;;;;;;;;;;5126720;27;20464;-67
2023/04/29 10:55:58;;;;;;;16.13;6.13;;;;;;;;;;5122110;27;20493;-65
2023/04/29 10:58:34;;;;;;;;;;;;;;;;;;5124754;27;20589;-65
2023/04/29 11:01:02;;;;;;;16.23;6.18;;;;;;;;;;5125116;27;19926;-70
2023/04/29 11:04:01;;;;;;;20.10;6.50;;;;;;;;;;5121163;27;20057;-63
2023/04/29 11:06:58;;;;;;;12.77;5.85;;;;;;;;;;5105441;27;20115;-64
2023/04/29 11:10:38;;;;;;;15.35;7.05;;;;;;;;;;5123682;27;20560;-66
2023/04/29 11:13:39;;;;;;;14.23;7.72;;;;;;;;;;5116684;27;20447;-66
2023/04/29 11:16:46;;;;;;;14.00;7.03;;;;;;;;;;5120616;27;20057;-66
2023/04/29 11:19:49;;;;;;;17.70;6.07;;;;;;;;;;5118790;27;20128;-67
2023/04/29 11:22:20;;;;;;;9.98;5.80;;;;;;;;;;5118329;27;20474;-64
2023/04/29 11:24:50;;;;;;;13.02;5.60;;;;;;;;;;5125863;27;20047;-69
2023/04/29 11:27:18;;;;;;;11.32;4.97;;;;;;;;;;5122356;27;20264;-64
2023/04/29 11:29:46;;;;;;;7.10;4.43;;;;;;;;;;5117035;27;20441;-64
2023/04/29 11:32:12;;;;;;;9.18;5.25;;;;;;;;;;5119401;27;20061;-65
2023/04/29 11:34:38;;;;;;;9.80;5.20;;;;;;;;;;5110185;27;20054;-69
2023/04/29 11:37:44;;;;;;;8.88;4.32;;;;;;;;;;5113605;27;20089;-64
2023/04/29 11:41:27;;;;;;;7.93;4.00;;;;;;;;;;5110063;27;20046;-63
2023/04/29 11:45:07;;;;;;;8.63;3.63;;;;;;;;;;5121445;27;20087;-64
2023/04/29 11:48:49;;;;;;;8.77;2.72;;;;;;;;;;5120824;27;20072;-65
2023/04/29 11:52:32;;;;;;;5.93;3.03;;;;;;;;;;5123502;27;20047;-64
2023/04/29 11:56:12;;;;;;;6.90;2.95;;;;;;;;;;5122195;27;20055;-63
2023/04/29 11:59:54;;;;;;;10.48;2.97;;;;;;;;;;5121828;27;20054;-63
2023/04/29 12:03:35;;;;;;;7.95;2.72;;;;;;;;;;5121994;27;20110;-65
2023/04/29 12:07:14;;;;;;;6.32;3.08;;;;;;;;;;5123349;27;20058;-63
2023/04/29 12:10:54;;;;;;;6.22;2.45;;;;;;;;;;5121271;27;20050;-66
2023/04/29 12:14:35;;;;;;;8.00;2.60;;;;;;;;;;5121375;27;20073;-64
2023/04/29 12:18:37;;;;;;;7.47;2.13;;;;;;;;;;5121790;27;20059;-65
2023/04/29 12:21:56;;;;;;;6.18;2.08;;;;;;;;;;5122634;27;20169;-64
2023/04/29 12:25:37;;;;;;;7.18;2.08;;;;;;;;;;5121493;27;20128;-66
2023/04/29 12:29:17;;;;;;;5.07;1.95;;;;;;;;;;5121005;27;20050;-66
2023/04/29 12:32:58;;;;;;;7.88;1.80;;;;;;;;;;5123109;27;20134;-64
2023/04/29 12:36:38;;;;;;;5.80;1.77;;;;;;;;;;5120262;27;20046;-67
2023/04/29 12:40:19;;;;;;;4.30;1.85;;;;;;;;;;5121738;27;20500;-64
2023/04/29 12:43:59;;;;;;;9.55;2.10;;;;;;;;;;5123315;27;20043;-66
2023/04/29 12:47:39;;;;;;;3.83;1.58;;;;;;;;;;5123733;27;20125;-65
2023/04/29 12:51:19;;;;;;;6.28;2.10;;;;;;;;;;5122797;27;22501;-65
2023/04/29 12:55:00;;;;;;;7.05;2.28;;;;;;;;;;5122122;27;20343;-71
2023/04/29 12:58:40;;;;;;;5.82;2.20;;;;;;;;;;5124493;27;20082;-63
2023/04/29 13:02:21;;;;;;;6.22;2.40;;;;;;;;;;5128480;27;20053;-63
2023/04/29 13:06:01;;;;;;;8.10;2.50;;;;;;;;;;5126961;27;20263;-64
2023/04/29 13:09:41;;;;;;;8.80;2.53;;;;;;;;;;5124173;27;20085;-65
2023/04/29 13:13:24;;;;;;;5.75;2.40;;;;;;;;;;5125932;27;20154;-66
2023/04/29 13:17:05;;;;;;;9.88;2.53;;;;;;;;;;5125593;27;20050;-64
2023/04/29 13:20:45;;;;;;;7.80;2.70;;;;;;;;;;5133100;27;20046;-67
2023/04/29 13:24:26;;;;;;;7.95;2.60;;;;;;;;;;5126064;27;20050;-64
2023/04/29 13:28:06;;;;;;;5.13;2.42;;;;;;;;;;5127202;27;20452;-63
2023/04/29 13:31:46;;;;;;;10.98;2.40;;;;;;;;;;5124793;27;20049;-64
2023/04/29 13:35:26;;;;;;;9.43;2.33;;;;;;;;;;5125620;27;20107;-65
2023/04/29 13:39:07;;;;;;;8.05;2.45;;;;;;;;;;5125235;27;20054;-65
2023/04/29 13:42:47;;;;;;;4.80;2.33;;;;;;;;;;5124916;27;20966;-66
2023/04/29 13:46:27;;;;;;;8.27;2.22;;;;;;;;;;5123218;27;20046;-65
2023/04/29 13:50:08;;;;;;;5.80;1.80;;;;;;;;;;5124676;27;20034;-66
2023/04/29 13:53:48;;;;;;;8.15;1.98;;;;;;;;;;5120896;27;20043;-66
2023/04/29 13:57:28;;;;;;;5.88;1.83;;;;;;;;;;5124724;27;20046;-69
2023/04/29 14:01:08;;;;;;;7.95;2.20;;;;;;;;;;5122669;27;20115;-68
2023/04/29 14:04:50;;;;;;;7.05;2.08;;;;;;;;;;5125034;27;21050;-67
2023/04/29 14:08:30;;;;;;;5.53;1.80;;;;;;;;;;5124427;27;20051;-65
2023/04/29 14:12:11;;;;;;;6.82;1.70;;;;;;;;;;5126007;27;20223;-66
2023/04/29 14:15:53;;;;;;;5.03;1.67;;;;;;;;;;5123941;27;20541;-67
2023/04/29 14:19:33;;;;;;;9.20;1.80;;;;;;;;;;5128208;27;20422;-65
2023/04/29 14:23:13;;;;;;;9.45;1.60;;;;;;;;;;5126373;27;20047;-65
2023/04/29 14:26:54;;;;;;;8.82;1.90;;;;;;;;;;5125524;27;20750;-65
2023/04/29 14:30:34;;;;;;;5.53;1.75;;;;;;;;;;5124176;27;20125;-64
2023/04/29 14:34:14;;;;;;;8.43;2.08;;;;;;;;;;5122961;27;20402;-66
2023/04/29 14:37:55;;;;;;;4.63;1.75;;;;;;;;;;5124256;27;20403;-64
2023/04/29 14:41:35;;;;;;;7.35;1.83;;;;;;;;;;5123130;27;20713;-68
2023/04/29 14:45:16;;;;;;;5.68;1.60;;;;;;;;;;5123665;27;20050;-69
2023/04/29 14:48:56;;;;;;;7.93;2.33;;;;;;;;;;5124632;27;20181;-65
2023/04/29 14:52:36;;;;;;;6.10;1.83;;;;;;;;;;5126006;27;20522;-64
2023/04/29 14:56:17;;;;;;;8.15;1.90;;;;;;;;;;5123755;27;20062;-66
2023/04/29 14:59:57;;;;;;;9.32;2.03;;;;;;;;;;5124120;27;20492;-65
2023/04/29 15:03:37;;;;;;;7.88;2.03;;;;;;;;;;5124263;27;20038;-65
2023/04/29 15:07:20;;;;;;;7.10;1.75;;;;;;;;;;5125960;27;20069;-64
2023/04/29 15:10:59;;;;;;;9.93;2.42;;;;;;;;;;5122605;27;20498;-65
2023/04/29 15:14:40;;;;;;;10.55;2.08;;;;;;;;;;5120983;27;20069;-67
2023/04/29 15:18:22;;;;;;;4.65;1.85;;;;;;;;;;5125352;27;20395;-70
2023/04/29 15:22:00;;;;;;;7.32;1.85;;;;;;;;;;5142107;27;20050;-64
2023/04/29 15:25:41;;;;;;;8.35;2.00;;;;;;;;;;5139062;27;20202;-66
2023/04/29 15:29:21;;;;;;;7.78;1.45;;;;;;;;;;5130617;27;20062;-69
2023/04/29 15:33:05;;;;;;;6.32;1.92;;;;;;;;;;5120636;27;20134;-67
2023/04/29 15:36:46;;;;;;;9.40;1.67;;;;;;;;;;5124724;27;20163;-66
2023/04/29 15:40:27;;;;;;;4.35;1.52;;;;;;;;;;5122981;27;20054;-65
2023/04/29 15:44:07;;;;;;;8.02;1.60;;;;;;;;;;5124369;27;20686;-66
2023/04/29 15:47:47;;;;;;;3.90;1.60;;;;;;;;;;5124009;27;22063;-66
2023/04/29 15:51:28;;;;;;;2.63;1.38;;;;;;;;;;5121030;27;20505;-66
2023/04/29 15:55:08;;;;;;;7.82;2.00;;;;;;;;;;5123358;27;20039;-64
2023/04/29 15:58:49;;;;;;;9.82;2.10;;;;;;;;;;5124461;27;20061;-63
2023/04/29 16:02:30;;;;;;;12.38;2.17;;;;;;;;;;5121365;27;20061;-65
2023/04/29 16:06:12;;;;;;;10.55;2.22;;;;;;;;;;5121009;27;20413;-65
2023/04/29 16:09:52;;;;;;;7.50;2.10;;;;;;;;;;5122205;27;20510;-64
2023/04/29 16:13:33;;;;;;;10.93;2.38;;;;;;;;;;5123176;27;20066;-64
2023/04/29 16:17:15;;;;;;;10.82;2.40;;;;;;;;;;5123038;27;20103;-64
2023/04/29 16:20:56;;;;;;;9.75;2.78;;;;;;;;;;5127353;27;20387;-67
2023/04/29 16:24:37;;;;;;;8.35;2.20;;;;;;;;;;5120583;27;20054;-65
2023/04/29 16:28:18;;;;;;;5.35;1.90;;;;;;;;;;5123033;27;20046;-63
2023/04/29 16:31:58;;;;;;;11.15;2.00;;;;;;;;;;5122387;27;20171;-67
2023/04/29 16:35:39;;;;;;;10.40;2.05;;;;;;;;;;5123598;27;20055;-69
2023/04/29 16:39:19;;;;;;;10.00;2.05;;;;;;;;;;5127912;27;20501;-65
2023/04/29 16:43:00;;;;;;;6.88;1.80;;;;;;;;;;5122723;27;20045;-63
2023/04/29 16:46:40;;;;;;;7.00;1.80;;;;;;;;;;5125218;27;20058;-66
2023/04/29 16:50:20;;;;;;;9.82;2.20;;;;;;;;;;5126874;27;20097;-65
2023/04/29 16:54:01;;;;;;;9.25;2.15;;;;;;;;;;5127126;27;20039;-66
2023/04/29 16:57:41;;;;;;;6.32;1.70;;;;;;;;;;5127152;27;20971;-65
2023/04/29 17:01:21;;;;;;;10.63;2.00;;;;;;;;;;5126001;27;20054;-67
2023/04/29 17:05:02;;;;;;;11.05;2.60;;;;;;;;;;5125264;27;20398;-67
2023/04/29 17:08:43;;;;;;;7.18;1.88;;;;;;;;;;5126758;27;20514;-64
2023/04/29 17:12:24;;;;;;;10.52;2.50;;;;;;;;;;5124712;27;20061;-64
2023/04/29 17:16:05;;;;;;;10.93;1.90;;;;;;;;;;5126956;27;20121;-66
2023/04/29 17:19:48;;;;;;;9.77;2.17;;;;;;;;;;5125239;27;20193;-65
2023/04/29 17:23:25;;;;;;;10.30;2.35;;;;;;;;;;5125764;27;20034;-64
2023/04/29 17:27:05;;;;;;;8.25;2.10;;;;;;;;;;5126978;27;20047;-66
2023/04/29 17:30:45;;;;;;;8.10;1.95;;;;;;;;;;5127086;27;20069;-64
2023/04/29 17:34:28;;;;;;;10.05;2.42;;;;;;;;;;5125232;27;20080;-65
2023/04/29 17:38:06;;;;;;;6.28;2.17;;;;;;;;;;5123483;27;21222;-64
2023/04/29 17:41:48;;;;;;;6.03;2.15;;;;;;;;;;5126415;27;20039;-65
2023/04/29 17:45:30;;;;;;;10.35;2.60;;;;;;;;;;5125807;27;20072;-64
2023/04/29 17:49:10;;;;;;;9.45;2.35;;;;;;;;;;5125775;27;20409;-67
2023/04/29 17:52:50;;;;;;;15.60;2.65;;;;;;;;;;5126757;27;20051;-66
2023/04/29 17:56:33;;;;;;;5.03;2.13;;;;;;;;;;5123576;27;20051;-64
2023/04/29 18:00:14;;;;;;;7.45;2.22;;;;;;;;;;5124790;27;20050;-66
2023/04/29 18:03:54;;;;;;;13.95;2.97;;;;;;;;;;5123606;27;20130;-64
2023/04/29 18:07:34;;;;;;;8.07;2.35;;;;;;;;;;5124881;27;20463;-64
2023/04/29 18:11:15;;;;;;;6.97;2.42;;;;;;;;;;5124457;27;20489;-66
2023/04/29 18:14:55;;;;;;;8.13;2.35;;;;;;;;;;5122941;27;20086;-64
2023/04/29 18:18:36;;;;;;;8.32;2.90;;;;;;;;;;5120412;27;20584;-67
2023/04/29 18:22:16;;;;;;;12.52;2.80;;;;;;;;;;5130366;27;20046;-65
2023/04/29 18:25:56;;;;;;;9.63;2.53;;;;;;;;;;5124062;27;20498;-65
2023/04/29 18:29:38;;;;;;;10.80;2.75;;;;;;;;;;5118344;27;20057;-66
2023/04/29 18:33:18;;;;;;;9.70;2.97;;;;;;;;;;5120507;27;20058;-65
2023/04/29 18:36:59;;;;;;;10.02;3.30;;;;;;;;;;5122021;27;20043;-64
2023/04/29 18:40:39;;;;;;;14.38;3.05;;;;;;;;;;5118167;27;20128;-66
2023/04/29 18:44:19;;;;;;;14.48;2.80;;;;;;;;;;5126813;27;20570;-69
2023/04/29 18:48:04;;;;;;;6.65;2.58;;;;;;;;;;5107160;27;20498;-68
2023/04/29 18:51:40;;;;;;;8.82;2.85;;;;;;;;;;5119151;27;20114;-66
2023/04/29 18:55:20;;;;;;;9.05;2.78;;;;;;;;;;5119768;27;20050;-67
2023/04/29 18:59:01;;;;;;;8.65;2.65;;;;;;;;;;5116311;27;20521;-68
2023/04/29 19:02:42;;;;;;;9.65;2.47;;;;;;;;;;5115893;27;20575;-66
2023/04/29 19:06:23;;;;;;;11.85;2.88;;;;;;;;;;5117315;27;20095;-68
2023/04/29 19:10:05;;;;;;;10.68;2.88;;;;;;;;;;5117536;27;20070;-66
2023/04/29 19:13:45;;;;;;;9.32;3.30;;;;;;;;;;5123515;27;20093;-64
2023/04/29 19:17:27;;;;;;;11.98;2.90;;;;;;;;;;5124151;27;20553;-67
2023/04/29 19:21:08;;;;;;;9.88;2.83;;;;;;;;;;5127436;27;20039;-68
2023/04/29 19:24:48;;;;;;;9.82;3.80;;;;;;;;;;5119247;27;20099;-65
2023/04/29 19:28:28;;;;;;;7.40;2.75;;;;;;;;;;5120689;27;20464;-63
2023/04/29 19:32:08;;;;;;;9.98;3.15;;;;;;;;;;5121655;27;20558;-65
2023/04/29 19:35:51;;;;;;;10.77;3.63;;;;;;;;;;5117670;27;20155;-63
2023/04/29 19:39:32;;;;;;;9.02;3.97;;;;;;;;;;5122191;27;20103;-64
2023/04/29 19:43:12;;;;;;;9.30;3.50;;;;;;;;;;5121925;27;20718;-66
2023/04/29 19:46:52;;;;;;;10.52;3.53;;;;;;;;;;5119759;27;20574;-64
2023/04/29 19:50:32;;;;;;;15.77;2.97;;;;;;;;;;5121024;27;20076;-64
2023/04/29 19:54:13;;;;;;;11.05;3.05;;;;;;;;;;5122001;27;20063;-66
2023/04/29 19:57:53;;;;;;;14.20;4.18;;;;;;;;;;5124929;27;20128;-67
2023/04/29 20:01:34;;;;;;;16.30;4.60;;;;;;;;;;5123072;27;20073;-69
2023/04/29 20:05:15;;;;;;;22.40;3.58;;;;;;;;;;5120988;27;20046;-65
2023/04/29 20:08:55;;;;;;;14.60;3.72;;;;;;;;;;5115795;27;20884;-62
2023/04/29 20:12:35;;;;;;;12.85;3.60;;;;;;;;;;5119494;27;20054;-65
2023/04/29 20:16:16;;;;;;;10.10;3.78;;;;;;;;;;5121876;27;20137;-63
2023/04/29 20:19:57;;;;;;;12.23;4.00;;;;;;;;;;5127026;27;20054;-65
2023/04/29 20:23:37;;;;;;;8.57;3.60;;;;;;;;;;5119998;27;22197;-65